• Join FlightAware (Why Join?)
  • Login
  • US Flag 
Rudolph Flight #1: Scheduled 
11:34PM EST


 

Airport Tracker/Info


-or-


 

Live Flight TrackerFlight Track Log ✈ UCA3597 ✈ 06-May-2014 ✈ KIAD - KBGM

Flight Track Log - Related Links

Times and Time Zones

All times are in EDT time to prevent confusion due to time zone crossing. See the UCA3597 flight status page for this flight to view local times or setup timezone preferences in your user account.

Time Position Orientation Groundspeed Altitude Reporting Facility
EDT Latitude Longitude Course Direction KTS MPH feet Rate Location/Type
05:57PM 40.2840 -76.8716 19° North  Level Estimated
05:58PM 40.3301 -76.8509 19° North  Level Estimated
05:59PM 40.3761 -76.8301 19° North  Level Estimated
06:00PM 40.4221 -76.8094 19° North  Level Estimated
06:01PM 40.4682 -76.7886 19° North  Level Estimated
06:02PM 40.5142 -76.7678 19° North  Level Estimated
06:03PM 40.5602 -76.7469 19° North  Level Estimated
06:04PM 40.6062 -76.7261 19° North  Level Estimated
06:05PM 40.6522 -76.7052 19° North  Level Estimated
06:06PM 40.6982 -76.6842 19° North  Level Estimated
06:07PM 40.7442 -76.6633 19° North  Level Estimated
06:08PM 40.7902 -76.6423 19° North  Level Estimated
06:09PM 40.8362 -76.6213 19° North  Level Estimated
06:10PM 40.8822 -76.6002 19° North  Level Estimated
06:11PM 40.9282 -76.5791 19° North  Level Estimated
06:12PM 40.9742 -76.5581 19° North  Level Estimated
06:13PM 41.0202 -76.5369 19° North  Level Estimated
06:14PM 41.0662 -76.5157 19° North  Level Estimated
06:15PM 41.1121 -76.4946 19° North  Level Estimated
06:16PM 41.1656 -76.4699 19° North  Level Estimated
06:17PM 41.2191 -76.4451 19° North  Level Estimated
06:18PM 41.2726 -76.4203 19° North  Level Estimated
06:19PM 41.3261 -76.3955 19° North  Level Estimated
06:20PM 41.3796 -76.3706 19° North  Level Estimated
06:21PM 41.4331 -76.3457 19° North  Level Estimated
06:22PM 41.4865 -76.3208 19° North  Level Estimated
06:23PM 41.5400 -76.2958 19° North  Level Estimated
06:24PM 41.5935 -76.2708 19° North  Level Estimated
06:25PM 41.6469 -76.2457 19° North  Level Estimated
06:26PM 41.7004 -76.2206 19° North  Level Estimated
06:27PM 41.7538 -76.1954 19° North  Level Estimated
06:28PM 41.8073 -76.1702 19° North  Level Estimated
06:29PM 41.8607 -76.1450 19° North  Level Estimated
06:30PM 41.9141 -76.1197 19° North  Level Estimated
06:31PM 41.9675 -76.0944 19° North  Level Estimated
06:32PM 42.0210 -76.0690 19° North  Level Estimated
06:33PM 42.0744 -76.0436 19° North  Level Estimated
06:34PM 42.1278 -76.0182 19° North  Level Estimated
06:35PM 42.1812 -75.9927 19° North  Level Estimated
06:36PM 42.2084 -75.9796 19° North  Level Estimated
06:37PM 42.2084 -75.9796 North  Level Estimated
06:38PM 42.2084 -75.9796 North  Level Estimated
06:39PM 42.2084 -75.9796 North  Level Estimated
06:40PM 42.2084 -75.9796 North  Level Estimated
06:41PM 42.2084 -75.9796 North  Level Estimated
06:42PM 42.2084 -75.9796 North  Level Estimated
06:43PM 42.2084 -75.9796 North  Level Estimated
06:44PM 42.2084 -75.9796 North  Level Estimated
06:45PM 42.2084 -75.9796 North  Level Estimated